Polk, Nebraska
Current Conditions -  °F | °C
As of 4:15 AM on Saturday 20 Dec 2014 (Local Time) from KJYR Reporting Station
Haze Haze  
Wind Chill: 32°   Ceiling: 400
Heat Index: 32°   Visibility: 4mi
Dew Point: 32°   Wind: 0mph
Humidity: 100%   Direction: NA
Pressure: 30.05"   Gusts: NA
Location:  41.08°N, 97.78°W
Report Text: KJYR 201015Z AUTO 00000KT 4SM BR OVC004 00/00 A3005 RMK AO2
Loading
Personal Weather Stations






























Interactive Weather Map New forecast layout! Learn more

10-Day Weather Forecast

Advertisements
Track Severe Weather on mobile